sensor_id;sensor_type;location;lat;lon;timestamp;temperature;humidity
74923;HTU21D;64715;44.760;37.678;2023-07-20T00:00:08;18.07;75.55
74923;HTU21D;64715;44.760;37.678;2023-07-20T00:01:15;18.07;75.43
74923;HTU21D;64715;44.760;37.678;2023-07-20T00:02:16;18.08;75.42
74923;HTU21D;64715;44.760;37.678;2023-07-20T00:03:17;18.07;75.35
74923;HTU21D;64715;44.760;37.678;2023-07-20T00:04:19;18.06;75.37
74923;HTU21D;64715;44.760;37.678;2023-07-20T00:05:20;18.06;75.34
74923;HTU21D;64715;44.760;37.678;2023-07-20T00:06:25;18.06;75.40
74923;HTU21D;64715;44.760;37.678;2023-07-20T00:07:28;18.05;75.31
74923;HTU21D;64715;44.760;37.678;2023-07-20T00:08:29;18.04;75.44
74923;HTU21D;64715;44.760;37.678;2023-07-20T00:09:30;18.03;75.50
74923;HTU21D;64715;44.760;37.678;2023-07-20T00:10:31;18.02;75.38
74923;HTU21D;64715;44.760;37.678;2023-07-20T00:11:35;18.02;75.39
74923;HTU21D;64715;44.760;37.678;2023-07-20T00:12:37;17.98;75.31
74923;HTU21D;64715;44.760;37.678;2023-07-20T00:13:38;17.98;75.47
74923;HTU21D;64715;44.760;37.678;2023-07-20T00:14:39;17.97;75.41
74923;HTU21D;64715;44.760;37.678;2023-07-20T00:15:40;17.97;75.61
74923;HTU21D;64715;44.760;37.678;2023-07-20T00:16:41;17.96;75.44
74923;HTU21D;64715;44.760;37.678;2023-07-20T00:17:42;17.94;75.57
74923;HTU21D;64715;44.760;37.678;2023-07-20T00:18:44;17.93;75.65
74923;HTU21D;64715;44.760;37.678;2023-07-20T00:19:45;17.93;75.61
74923;HTU21D;64715;44.760;37.678;2023-07-20T00:20:46;17.92;75.70
74923;HTU21D;64715;44.760;37.678;2023-07-20T00:21:47;17.93;75.70
74923;HTU21D;64715;44.760;37.678;2023-07-20T00:22:48;17.91;75.67
74923;HTU21D;64715;44.760;37.678;2023-07-20T00:23:51;17.90;75.73
74923;HTU21D;64715;44.760;37.678;2023-07-20T00:24:52;17.90;75.82
74923;HTU21D;64715;44.760;37.678;2023-07-20T00:25:53;17.89;75.96
74923;HTU21D;64715;44.760;37.678;2023-07-20T00:26:54;17.87;75.86
74923;HTU21D;64715;44.760;37.678;2023-07-20T00:27:55;17.87;76.04
74923;HTU21D;64715;44.760;37.678;2023-07-20T00:28:57;17.87;75.97
74923;HTU21D;64715;44.760;37.678;2023-07-20T00:29:58;17.85;76.10
74923;HTU21D;64715;44.760;37.678;2023-07-20T00:30:59;17.87;76.17
74923;HTU21D;64715;44.760;37.678;2023-07-20T00:32:01;17.83;76.06
74923;HTU21D;64715;44.760;37.678;2023-07-20T00:33:02;17.82;76.08
74923;HTU21D;64715;44.760;37.678;2023-07-20T00:34:06;17.81;76.22
74923;HTU21D;64715;44.760;37.678;2023-07-20T00:35:09;17.81;76.12
74923;HTU21D;64715;44.760;37.678;2023-07-20T00:36:11;17.80;76.24
74923;HTU21D;64715;44.760;37.678;2023-07-20T00:37:12;17.77;76.26
74923;HTU21D;64715;44.760;37.678;2023-07-20T00:38:13;17.78;76.28
74923;HTU21D;64715;44.760;37.678;2023-07-20T00:39:16;17.76;76.44
74923;HTU21D;64715;44.760;37.678;2023-07-20T00:40:17;17.76;76.43
74923;HTU21D;64715;44.760;37.678;2023-07-20T00:41:18;17.76;76.61
74923;HTU21D;64715;44.760;37.678;2023-07-20T00:42:19;17.75;76.49
74923;HTU21D;64715;44.760;37.678;2023-07-20T00:43:20;17.74;76.57
74923;HTU21D;64715;44.760;37.678;2023-07-20T00:44:21;17.74;76.82
74923;HTU21D;64715;44.760;37.678;2023-07-20T00:45:22;17.73;76.79
74923;HTU21D;64715;44.760;37.678;2023-07-20T00:46:23;17.73;76.79
74923;HTU21D;64715;44.760;37.678;2023-07-20T00:47:27;17.74;76.89
74923;HTU21D;64715;44.760;37.678;2023-07-20T00:48:28;17.75;76.92
74923;HTU21D;64715;44.760;37.678;2023-07-20T00:49:30;17.75;76.82
74923;HTU21D;64715;44.760;37.678;2023-07-20T00:50:32;17.75;76.83
74923;HTU21D;64715;44.760;37.678;2023-07-20T00:51:34;17.76;76.73
74923;HTU21D;64715;44.760;37.678;2023-07-20T00:52:37;17.76;76.85
74923;HTU21D;64715;44.760;37.678;2023-07-20T00:53:40;17.78;76.70
74923;HTU21D;64715;44.760;37.678;2023-07-20T00:54:42;17.79;76.73
74923;HTU21D;64715;44.760;37.678;2023-07-20T00:55:43;17.78;76.76
74923;HTU21D;64715;44.760;37.678;2023-07-20T00:56:46;17.79;76.70
74923;HTU21D;64715;44.760;37.678;2023-07-20T00:57:47;17.79;76.85
74923;HTU21D;64715;44.760;37.678;2023-07-20T00:58:48;17.80;76.72
74923;HTU21D;64715;44.760;37.678;2023-07-20T00:59:49;17.79;76.82
74923;HTU21D;64715;44.760;37.678;2023-07-20T01:00:51;17.79;76.78
74923;HTU21D;64715;44.760;37.678;2023-07-20T01:01:54;17.79;76.76
74923;HTU21D;64715;44.760;37.678;2023-07-20T01:02:55;17.80;76.60
74923;HTU21D;64715;44.760;37.678;2023-07-20T01:03:56;17.79;76.67
74923;HTU21D;64715;44.760;37.678;2023-07-20T01:04:57;17.78;76.69
74923;HTU21D;64715;44.760;37.678;2023-07-20T01:07:32;17.77;76.56
74923;HTU21D;64715;44.760;37.678;2023-07-20T01:09:46;17.76;76.72
74923;HTU21D;64715;44.760;37.678;2023-07-20T01:11:01;17.75;76.57
74923;HTU21D;64715;44.760;37.678;2023-07-20T01:12:09;17.73;76.53
74923;HTU21D;64715;44.760;37.678;2023-07-20T01:13:14;17.73;76.76
74923;HTU21D;64715;44.760;37.678;2023-07-20T01:14:16;17.73;76.59
74923;HTU21D;64715;44.760;37.678;2023-07-20T01:15:18;17.72;76.63
74923;HTU21D;64715;44.760;37.678;2023-07-20T01:16:19;17.70;76.59
74923;HTU21D;64715;44.760;37.678;2023-07-20T01:17:20;17.72;76.76
74923;HTU21D;64715;44.760;37.678;2023-07-20T01:18:21;17.70;76.67
74923;HTU21D;64715;44.760;37.678;2023-07-20T01:19:23;17.72;76.66
74923;HTU21D;64715;44.760;37.678;2023-07-20T01:20:24;17.72;76.57
74923;HTU21D;64715;44.760;37.678;2023-07-20T01:21:37;17.72;76.47
74923;HTU21D;64715;44.760;37.678;2023-07-20T01:27:26;17.72;76.46
74923;HTU21D;64715;44.760;37.678;2023-07-20T01:31:28;17.72;76.49
74923;HTU21D;64715;44.760;37.678;2023-07-20T01:32:31;17.73;76.47
74923;HTU21D;64715;44.760;37.678;2023-07-20T01:33:33;17.75;76.48
74923;HTU21D;64715;44.760;37.678;2023-07-20T01:34:35;17.76;76.58
74923;HTU21D;64715;44.760;37.678;2023-07-20T01:35:38;17.77;76.53
74923;HTU21D;64715;44.760;37.678;2023-07-20T01:36:40;17.79;76.61
74923;HTU21D;64715;44.760;37.678;2023-07-20T01:37:44;17.81;76.63
74923;HTU21D;64715;44.760;37.678;2023-07-20T01:38:46;17.83;76.70
74923;HTU21D;64715;44.760;37.678;2023-07-20T01:39:47;17.85;76.41
74923;HTU21D;64715;44.760;37.678;2023-07-20T01:40:49;17.88;76.55
74923;HTU21D;64715;44.760;37.678;2023-07-20T01:41:50;17.89;76.56
74923;HTU21D;64715;44.760;37.678;2023-07-20T01:42:52;17.90;76.53
74923;HTU21D;64715;44.760;37.678;2023-07-20T01:43:57;17.92;76.54
74923;HTU21D;64715;44.760;37.678;2023-07-20T01:45:00;17.93;76.38
74923;HTU21D;64715;44.760;37.678;2023-07-20T01:46:00;17.95;76.29
74923;HTU21D;64715;44.760;37.678;2023-07-20T01:47:02;17.94;76.18
74923;HTU21D;64715;44.760;37.678;2023-07-20T01:48:04;17.95;76.26
74923;HTU21D;64715;44.760;37.678;2023-07-20T01:49:04;17.93;76.29
74923;HTU21D;64715;44.760;37.678;2023-07-20T01:50:06;17.93;76.28
74923;HTU21D;64715;44.760;37.678;2023-07-20T01:51:08;17.92;76.26
74923;HTU21D;64715;44.760;37.678;2023-07-20T01:52:09;17.91;76.21
74923;HTU21D;64715;44.760;37.678;2023-07-20T01:53:10;17.90;76.12
74923;HTU21D;64715;44.760;37.678;2023-07-20T01:54:12;17.90;76.26
74923;HTU21D;64715;44.760;37.678;2023-07-20T01:55:13;17.89;76.28
74923;HTU21D;64715;44.760;37.678;2023-07-20T01:56:14;17.89;76.25
74923;HTU21D;64715;44.760;37.678;2023-07-20T01:57:15;17.87;76.16
74923;HTU21D;64715;44.760;37.678;2023-07-20T01:58:16;17.85;76.18
74923;HTU21D;64715;44.760;37.678;2023-07-20T01:59:17;17.84;76.24
74923;HTU21D;64715;44.760;37.678;2023-07-20T02:00:18;17.84;76.37
74923;HTU21D;64715;44.760;37.678;2023-07-20T02:01:21;17.83;76.41
74923;HTU21D;64715;44.760;37.678;2023-07-20T02:02:27;17.83;76.42
74923;HTU21D;64715;44.760;37.678;2023-07-20T02:03:29;17.83;76.48
74923;HTU21D;64715;44.760;37.678;2023-07-20T02:04:30;17.81;76.50
74923;HTU21D;64715;44.760;37.678;2023-07-20T02:05:32;17.81;76.43
74923;HTU21D;64715;44.760;37.678;2023-07-20T02:06:33;17.82;76.62
74923;HTU21D;64715;44.760;37.678;2023-07-20T02:07:34;17.80;76.61
74923;HTU21D;64715;44.760;37.678;2023-07-20T02:08:35;17.81;76.76
74923;HTU21D;64715;44.760;37.678;2023-07-20T02:09:38;17.82;76.84
74923;HTU21D;64715;44.760;37.678;2023-07-20T02:10:42;17.81;76.86
74923;HTU21D;64715;44.760;37.678;2023-07-20T02:11:45;17.82;76.92
74923;HTU21D;64715;44.760;37.678;2023-07-20T02:12:47;17.82;76.89
74923;HTU21D;64715;44.760;37.678;2023-07-20T02:13:48;17.81;77.05
74923;HTU21D;64715;44.760;37.678;2023-07-20T02:14:49;17.84;76.95
74923;HTU21D;64715;44.760;37.678;2023-07-20T02:15:51;17.84;77.12
74923;HTU21D;64715;44.760;37.678;2023-07-20T02:16:52;17.85;77.20
74923;HTU21D;64715;44.760;37.678;2023-07-20T02:18:01;17.85;77.16
74923;HTU21D;64715;44.760;37.678;2023-07-20T02:19:08;17.89;77.18
74923;HTU21D;64715;44.760;37.678;2023-07-20T02:20:10;17.90;77.21
74923;HTU21D;64715;44.760;37.678;2023-07-20T02:21:11;17.92;77.22
74923;HTU21D;64715;44.760;37.678;2023-07-20T02:22:12;17.95;77.37
74923;HTU21D;64715;44.760;37.678;2023-07-20T02:23:13;17.96;77.42
74923;HTU21D;64715;44.760;37.678;2023-07-20T02:24:14;17.98;77.48
74923;HTU21D;64715;44.760;37.678;2023-07-20T02:25:15;18.05;77.66
74923;HTU21D;64715;44.760;37.678;2023-07-20T02:26:16;18.14;77.92
74923;HTU21D;64715;44.760;37.678;2023-07-20T02:27:17;18.27;78.27
74923;HTU21D;64715;44.760;37.678;2023-07-20T02:28:18;18.42;78.47
74923;HTU21D;64715;44.760;37.678;2023-07-20T02:29:19;18.62;78.48
74923;HTU21D;64715;44.760;37.678;2023-07-20T02:30:20;18.80;78.50
74923;HTU21D;64715;44.760;37.678;2023-07-20T02:31:21;19.02;78.55
74923;HTU21D;64715;44.760;37.678;2023-07-20T02:32:22;19.26;78.49
74923;HTU21D;64715;44.760;37.678;2023-07-20T02:33:23;19.51;78.16
74923;HTU21D;64715;44.760;37.678;2023-07-20T02:34:24;19.77;77.85
74923;HTU21D;64715;44.760;37.678;2023-07-20T02:35:25;20.05;77.50
74923;HTU21D;64715;44.760;37.678;2023-07-20T02:36:26;20.35;77.27
74923;HTU21D;64715;44.760;37.678;2023-07-20T02:37:27;20.65;76.76
74923;HTU21D;64715;44.760;37.678;2023-07-20T02:38:28;20.94;76.41
74923;HTU21D;64715;44.760;37.678;2023-07-20T02:39:29;21.27;75.79
74923;HTU21D;64715;44.760;37.678;2023-07-20T02:40:31;21.58;75.33
74923;HTU21D;64715;44.760;37.678;2023-07-20T02:41:33;21.89;74.73
74923;HTU21D;64715;44.760;37.678;2023-07-20T02:42:35;22.21;74.10
74923;HTU21D;64715;44.760;37.678;2023-07-20T02:43:36;22.54;73.54
74923;HTU21D;64715;44.760;37.678;2023-07-20T02:44:37;22.86;72.84
74923;HTU21D;64715;44.760;37.678;2023-07-20T02:45:41;23.18;72.13
74923;HTU21D;64715;44.760;37.678;2023-07-20T02:46:45;23.49;71.48
74923;HTU21D;64715;44.760;37.678;2023-07-20T02:47:46;23.76;70.76
74923;HTU21D;64715;44.760;37.678;2023-07-20T02:48:47;24.04;70.02
74923;HTU21D;64715;44.760;37.678;2023-07-20T02:49:48;24.33;69.28
74923;HTU21D;64715;44.760;37.678;2023-07-20T02:50:49;24.61;68.52
74923;HTU21D;64715;44.760;37.678;2023-07-20T02:51:50;24.89;67.86
74923;HTU21D;64715;44.760;37.678;2023-07-20T02:52:51;25.18;67.03
74923;HTU21D;64715;44.760;37.678;2023-07-20T02:53:52;25.49;66.27
74923;HTU21D;64715;44.760;37.678;2023-07-20T02:54:53;25.78;65.66
74923;HTU21D;64715;44.760;37.678;2023-07-20T02:55:56;26.09;64.86
74923;HTU21D;64715;44.760;37.678;2023-07-20T02:56:57;26.39;64.20
74923;HTU21D;64715;44.760;37.678;2023-07-20T02:57:58;26.68;63.32
74923;HTU21D;64715;44.760;37.678;2023-07-20T02:59:00;26.97;62.64
74923;HTU21D;64715;44.760;37.678;2023-07-20T03:00:03;27.28;61.84
74923;HTU21D;64715;44.760;37.678;2023-07-20T03:01:06;27.57;61.22
74923;HTU21D;64715;44.760;37.678;2023-07-20T03:02:07;27.86;60.33
74923;HTU21D;64715;44.760;37.678;2023-07-20T03:03:10;28.16;59.64
74923;HTU21D;64715;44.760;37.678;2023-07-20T03:04:11;28.43;58.84
74923;HTU21D;64715;44.760;37.678;2023-07-20T03:05:12;28.73;58.18
74923;HTU21D;64715;44.760;37.678;2023-07-20T03:06:14;29.00;57.29
74923;HTU21D;64715;44.760;37.678;2023-07-20T03:07:15;29.28;56.56
74923;HTU21D;64715;44.760;37.678;2023-07-20T03:08:16;29.54;55.90
74923;HTU21D;64715;44.760;37.678;2023-07-20T03:09:17;29.80;55.37
74923;HTU21D;64715;44.760;37.678;2023-07-20T03:10:18;30.08;54.67
74923;HTU21D;64715;44.760;37.678;2023-07-20T03:11:20;30.35;53.92
74923;HTU21D;64715;44.760;37.678;2023-07-20T03:12:21;30.63;53.22
74923;HTU21D;64715;44.760;37.678;2023-07-20T03:13:23;30.89;52.57
74923;HTU21D;64715;44.760;37.678;2023-07-20T03:14:25;31.15;52.01
74923;HTU21D;64715;44.760;37.678;2023-07-20T03:15:26;31.41;51.35
74923;HTU21D;64715;44.760;37.678;2023-07-20T03:16:27;31.70;50.53
74923;HTU21D;64715;44.760;37.678;2023-07-20T03:17:28;31.96;49.86
74923;HTU21D;64715;44.760;37.678;2023-07-20T03:18:29;32.22;48.95
74923;HTU21D;64715;44.760;37.678;2023-07-20T03:19:30;32.46;48.43
74923;HTU21D;64715;44.760;37.678;2023-07-20T03:20:31;32.71;47.80
74923;HTU21D;64715;44.760;37.678;2023-07-20T03:21:32;32.93;47.16
74923;HTU21D;64715;44.760;37.678;2023-07-20T03:22:33;33.15;46.47
74923;HTU21D;64715;44.760;37.678;2023-07-20T03:23:35;33.36;45.89
74923;HTU21D;64715;44.760;37.678;2023-07-20T03:24:36;33.58;45.60
74923;HTU21D;64715;44.760;37.678;2023-07-20T03:25:36;33.80;45.22
74923;HTU21D;64715;44.760;37.678;2023-07-20T03:26:38;34.06;44.48
74923;HTU21D;64715;44.760;37.678;2023-07-20T03:27:39;34.29;43.50
74923;HTU21D;64715;44.760;37.678;2023-07-20T03:28:41;34.50;42.72
74923;HTU21D;64715;44.760;37.678;2023-07-20T03:29:45;34.71;42.29
74923;HTU21D;64715;44.760;37.678;2023-07-20T03:30:46;34.90;41.84
74923;HTU21D;64715;44.760;37.678;2023-07-20T03:31:47;35.10;41.36
74923;HTU21D;64715;44.760;37.678;2023-07-20T03:32:49;35.28;40.52
74923;HTU21D;64715;44.760;37.678;2023-07-20T03:33:50;35.47;39.62
74923;HTU21D;64715;44.760;37.678;2023-07-20T03:34:51;35.66;39.24
74923;HTU21D;64715;44.760;37.678;2023-07-20T03:35:53;35.84;38.49
74923;HTU21D;64715;44.760;37.678;2023-07-20T03:36:54;36.01;37.73
74923;HTU21D;64715;44.760;37.678;2023-07-20T03:37:55;36.16;37.22
74923;HTU21D;64715;44.760;37.678;2023-07-20T03:38:56;36.32;36.95
74923;HTU21D;64715;44.760;37.678;2023-07-20T03:39:57;36.51;36.67
74923;HTU21D;64715;44.760;37.678;2023-07-20T03:41:00;36.70;36.14
74923;HTU21D;64715;44.760;37.678;2023-07-20T03:42:01;36.89;35.91
74923;HTU21D;64715;44.760;37.678;2023-07-20T03:43:02;37.08;35.41
74923;HTU21D;64715;44.760;37.678;2023-07-20T03:44:03;37.28;34.97
74923;HTU21D;64715;44.760;37.678;2023-07-20T03:45:07;37.44;34.33
74923;HTU21D;64715;44.760;37.678;2023-07-20T03:46:08;37.60;33.85
74923;HTU21D;64715;44.760;37.678;2023-07-20T03:47:09;37.74;33.52
74923;HTU21D;64715;44.760;37.678;2023-07-20T03:48:11;37.92;33.52
74923;HTU21D;64715;44.760;37.678;2023-07-20T03:49:13;38.09;32.80
74923;HTU21D;64715;44.760;37.678;2023-07-20T03:50:14;38.22;32.43
74923;HTU21D;64715;44.760;37.678;2023-07-20T03:51:15;38.37;32.03
74923;HTU21D;64715;44.760;37.678;2023-07-20T03:52:16;38.52;31.67
74923;HTU21D;64715;44.760;37.678;2023-07-20T03:53:17;38.66;31.27
74923;HTU21D;64715;44.760;37.678;2023-07-20T03:54:19;38.82;30.95
74923;HTU21D;64715;44.760;37.678;2023-07-20T03:55:20;38.97;30.91
74923;HTU21D;64715;44.760;37.678;2023-07-20T03:56:21;39.13;30.09
74923;HTU21D;64715;44.760;37.678;2023-07-20T03:57:22;39.27;29.80
74923;HTU21D;64715;44.760;37.678;2023-07-20T03:58:23;39.38;29.48
74923;HTU21D;64715;44.760;37.678;2023-07-20T03:59:24;39.51;28.95
74923;HTU21D;64715;44.760;37.678;2023-07-20T04:00:25;39.61;28.69
74923;HTU21D;64715;44.760;37.678;2023-07-20T04:01:26;39.69;28.30
74923;HTU21D;64715;44.760;37.678;2023-07-20T04:02:27;39.76;28.10
74923;HTU21D;64715;44.760;37.678;2023-07-20T04:03:29;39.84;28.13
74923;HTU21D;64715;44.760;37.678;2023-07-20T04:04:30;39.96;27.81
74923;HTU21D;64715;44.760;37.678;2023-07-20T04:05:31;40.12;27.52
74923;HTU21D;64715;44.760;37.678;2023-07-20T04:06:32;40.25;27.43
74923;HTU21D;64715;44.760;37.678;2023-07-20T04:07:33;40.42;27.28
74923;HTU21D;64715;44.760;37.678;2023-07-20T04:08:34;40.57;26.68
74923;HTU21D;64715;44.760;37.678;2023-07-20T04:09:35;40.71;26.23
74923;HTU21D;64715;44.760;37.678;2023-07-20T04:10:37;40.84;25.72
74923;HTU21D;64715;44.760;37.678;2023-07-20T04:11:38;40.93;25.52
74923;HTU21D;64715;44.760;37.678;2023-07-20T04:12:39;41.02;25.52
74923;HTU21D;64715;44.760;37.678;2023-07-20T04:13:40;41.11;25.27
74923;HTU21D;64715;44.760;37.678;2023-07-20T04:14:41;41.21;25.18
74923;HTU21D;64715;44.760;37.678;2023-07-20T04:15:43;41.28;25.25
74923;HTU21D;64715;44.760;37.678;2023-07-20T04:16:46;41.40;25.03
74923;HTU21D;64715;44.760;37.678;2023-07-20T04:17:48;41.51;24.94
74923;HTU21D;64715;44.760;37.678;2023-07-20T04:18:50;41.59;24.69
74923;HTU21D;64715;44.760;37.678;2023-07-20T04:19:51;41.66;24.31
74923;HTU21D;64715;44.760;37.678;2023-07-20T04:20:52;41.71;24.16
74923;HTU21D;64715;44.760;37.678;2023-07-20T04:21:53;41.72;24.08
74923;HTU21D;64715;44.760;37.678;2023-07-20T04:22:54;41.75;23.97
74923;HTU21D;64715;44.760;37.678;2023-07-20T04:23:55;41.77;23.78
74923;HTU21D;64715;44.760;37.678;2023-07-20T04:24:56;41.79;23.97
74923;HTU21D;64715;44.760;37.678;2023-07-20T04:25:57;41.86;23.81
74923;HTU21D;64715;44.760;37.678;2023-07-20T04:26:58;41.92;23.73
74923;HTU21D;64715;44.760;37.678;2023-07-20T04:28:00;41.92;23.67
74923;HTU21D;64715;44.760;37.678;2023-07-20T04:29:01;41.93;23.70
74923;HTU21D;64715;44.760;37.678;2023-07-20T04:30:10;41.98;23.53
74923;HTU21D;64715;44.760;37.678;2023-07-20T04:31:13;41.98;23.24
74923;HTU21D;64715;44.760;37.678;2023-07-20T04:32:14;41.89;23.17
74923;HTU21D;64715;44.760;37.678;2023-07-20T04:33:15;41.79;23.19
74923;HTU21D;64715;44.760;37.678;2023-07-20T04:34:18;41.73;23.14
74923;HTU21D;64715;44.760;37.678;2023-07-20T04:35:44;41.66;23.50
74923;HTU21D;64715;44.760;37.678;2023-07-20T04:36:45;41.51;23.70
74923;HTU21D;64715;44.760;37.678;2023-07-20T04:37:47;41.40;24.11
74923;HTU21D;64715;44.760;37.678;2023-07-20T04:38:51;41.47;23.91
74923;HTU21D;64715;44.760;37.678;2023-07-20T04:39:54;41.54;23.97
74923;HTU21D;64715;44.760;37.678;2023-07-20T04:40:55;41.61;23.60
74923;HTU21D;64715;44.760;37.678;2023-07-20T04:41:57;41.67;23.53
74923;HTU21D;64715;44.760;37.678;2023-07-20T04:42:58;41.72;23.41
74923;HTU21D;64715;44.760;37.678;2023-07-20T04:44:00;41.76;23.48
74923;HTU21D;64715;44.760;37.678;2023-07-20T04:45:05;41.78;23.43
74923;HTU21D;64715;44.760;37.678;2023-07-20T04:46:06;41.79;23.24
74923;HTU21D;64715;44.760;37.678;2023-07-20T04:47:09;41.76;23.28
74923;HTU21D;64715;44.760;37.678;2023-07-20T04:48:14;41.71;23.34
74923;HTU21D;64715;44.760;37.678;2023-07-20T04:49:22;41.70;23.62
74923;HTU21D;64715;44.760;37.678;2023-07-20T04:50:23;41.72;23.38
74923;HTU21D;64715;44.760;37.678;2023-07-20T04:51:26;41.69;23.46
74923;HTU21D;64715;44.760;37.678;2023-07-20T04:52:29;41.70;23.58
74923;HTU21D;64715;44.760;37.678;2023-07-20T04:53:31;41.75;23.47
74923;HTU21D;64715;44.760;37.678;2023-07-20T04:54:33;41.86;23.46
74923;HTU21D;64715;44.760;37.678;2023-07-20T04:55:34;41.99;23.33
74923;HTU21D;64715;44.760;37.678;2023-07-20T04:56:35;42.13;23.41
74923;HTU21D;64715;44.760;37.678;2023-07-20T04:57:39;42.25;23.19
74923;HTU21D;64715;44.760;37.678;2023-07-20T04:58:39;42.30;23.46
74923;HTU21D;64715;44.760;37.678;2023-07-20T04:59:40;42.37;23.37
74923;HTU21D;64715;44.760;37.678;2023-07-20T05:00:41;42.45;23.27
74923;HTU21D;64715;44.760;37.678;2023-07-20T05:01:42;42.54;23.03
74923;HTU21D;64715;44.760;37.678;2023-07-20T05:02:43;42.57;22.72
74923;HTU21D;64715;44.760;37.678;2023-07-20T05:03:44;42.54;22.81
74923;HTU21D;64715;44.760;37.678;2023-07-20T05:04:46;42.54;22.95
74923;HTU21D;64715;44.760;37.678;2023-07-20T05:05:47;42.58;22.82
74923;HTU21D;64715;44.760;37.678;2023-07-20T05:06:51;42.59;22.85
74923;HTU21D;64715;44.760;37.678;2023-07-20T05:07:52;42.68;22.83
74923;HTU21D;64715;44.760;37.678;2023-07-20T05:08:53;42.79;22.96
74923;HTU21D;64715;44.760;37.678;2023-07-20T05:09:54;42.94;22.79
74923;HTU21D;64715;44.760;37.678;2023-07-20T05:10:55;43.11;22.56
74923;HTU21D;64715;44.760;37.678;2023-07-20T05:11:56;43.27;22.13
74923;HTU21D;64715;44.760;37.678;2023-07-20T05:12:58;43.29;21.80
74923;HTU21D;64715;44.760;37.678;2023-07-20T05:14:00;43.17;21.80
74923;HTU21D;64715;44.760;37.678;2023-07-20T05:15:01;43.05;21.80
74923;HTU21D;64715;44.760;37.678;2023-07-20T05:16:02;42.89;21.94
74923;HTU21D;64715;44.760;37.678;2023-07-20T05:17:03;42.68;21.95
74923;HTU21D;64715;44.760;37.678;2023-07-20T05:18:05;42.51;22.14
74923;HTU21D;64715;44.760;37.678;2023-07-20T05:19:06;42.45;22.14
74923;HTU21D;64715;44.760;37.678;2023-07-20T05:20:07;42.31;21.98
74923;HTU21D;64715;44.760;37.678;2023-07-20T05:21:11;42.14;22.10
74923;HTU21D;64715;44.760;37.678;2023-07-20T05:22:13;42.03;22.21
74923;HTU21D;64715;44.760;37.678;2023-07-20T05:23:18;41.99;22.50
74923;HTU21D;64715;44.760;37.678;2023-07-20T05:24:20;42.02;22.54
74923;HTU21D;64715;44.760;37.678;2023-07-20T05:25:21;41.93;22.59
74923;HTU21D;64715;44.760;37.678;2023-07-20T05:26:23;41.80;22.50
74923;HTU21D;64715;44.760;37.678;2023-07-20T05:27:24;41.60;22.56
74923;HTU21D;64715;44.760;37.678;2023-07-20T05:28:26;41.42;22.73
74923;HTU21D;64715;44.760;37.678;2023-07-20T05:29:27;41.31;22.85
74923;HTU21D;64715;44.760;37.678;2023-07-20T05:30:28;41.22;23.08
74923;HTU21D;64715;44.760;37.678;2023-07-20T05:31:29;41.20;23.51
74923;HTU21D;64715;44.760;37.678;2023-07-20T05:32:32;41.27;23.51
74923;HTU21D;64715;44.760;37.678;2023-07-20T05:33:33;41.30;23.57
74923;HTU21D;64715;44.760;37.678;2023-07-20T05:34:34;41.31;23.27
74923;HTU21D;64715;44.760;37.678;2023-07-20T05:35:36;41.22;23.11
74923;HTU21D;64715;44.760;37.678;2023-07-20T05:36:38;41.10;22.86
74923;HTU21D;64715;44.760;37.678;2023-07-20T05:37:39;40.92;23.21
74923;HTU21D;64715;44.760;37.678;2023-07-20T05:38:40;40.77;22.95
74923;HTU21D;64715;44.760;37.678;2023-07-20T05:39:41;40.58;23.28
74923;HTU21D;64715;44.760;37.678;2023-07-20T05:40:43;40.44;23.70
74923;HTU21D;64715;44.760;37.678;2023-07-20T05:41:45;40.37;23.85
74923;HTU21D;64715;44.760;37.678;2023-07-20T05:42:46;40.31;23.56
74923;HTU21D;64715;44.760;37.678;2023-07-20T05:43:47;40.26;23.78
74923;HTU21D;64715;44.760;37.678;2023-07-20T05:44:48;40.18;23.69
74923;HTU21D;64715;44.760;37.678;2023-07-20T05:45:50;40.07;23.64
74923;HTU21D;64715;44.760;37.678;2023-07-20T05:46:51;39.88;23.62
74923;HTU21D;64715;44.760;37.678;2023-07-20T05:47:52;39.65;23.98
74923;HTU21D;64715;44.760;37.678;2023-07-20T05:48:53;39.41;23.92
74923;HTU21D;64715;44.760;37.678;2023-07-20T05:49:54;39.23;23.90
74923;HTU21D;64715;44.760;37.678;2023-07-20T05:50:55;38.99;23.94
74923;HTU21D;64715;44.760;37.678;2023-07-20T05:51:56;38.67;24.24
74923;HTU21D;64715;44.760;37.678;2023-07-20T05:52:57;38.34;24.90
74923;HTU21D;64715;44.760;37.678;2023-07-20T05:53:58;38.11;25.23
74923;HTU21D;64715;44.760;37.678;2023-07-20T05:54:59;37.97;25.37
74923;HTU21D;64715;44.760;37.678;2023-07-20T05:56:00;37.85;25.27
74923;HTU21D;64715;44.760;37.678;2023-07-20T05:57:01;37.63;25.15
74923;HTU21D;64715;44.760;37.678;2023-07-20T05:58:02;37.46;25.39
74923;HTU21D;64715;44.760;37.678;2023-07-20T05:59:04;37.32;25.91
74923;HTU21D;64715;44.760;37.678;2023-07-20T06:00:06;37.21;25.59
74923;HTU21D;64715;44.760;37.678;2023-07-20T06:01:13;37.07;26.09
74923;HTU21D;64715;44.760;37.678;2023-07-20T06:02:15;36.95;25.91
74923;HTU21D;64715;44.760;37.678;2023-07-20T06:03:16;36.83;26.15
74923;HTU21D;64715;44.760;37.678;2023-07-20T06:04:17;36.75;26.39
74923;HTU21D;64715;44.760;37.678;2023-07-20T06:05:19;36.64;26.23
74923;HTU21D;64715;44.760;37.678;2023-07-20T06:06:21;36.48;26.52
74923;HTU21D;64715;44.760;37.678;2023-07-20T06:07:22;36.30;26.80
74923;HTU21D;64715;44.760;37.678;2023-07-20T06:08:23;36.13;26.59
74923;HTU21D;64715;44.760;37.678;2023-07-20T06:09:24;35.92;26.51
74923;HTU21D;64715;44.760;37.678;2023-07-20T06:10:25;35.71;26.39
74923;HTU21D;64715;44.760;37.678;2023-07-20T06:11:27;35.53;26.46
74923;HTU21D;64715;44.760;37.678;2023-07-20T06:12:28;35.34;26.74
74923;HTU21D;64715;44.760;37.678;2023-07-20T06:13:29;35.14;26.83
74923;HTU21D;64715;44.760;37.678;2023-07-20T06:14:31;34.96;26.97
74923;HTU21D;64715;44.760;37.678;2023-07-20T06:15:33;34.76;27.04
74923;HTU21D;64715;44.760;37.678;2023-07-20T06:16:35;34.53;27.04
74923;HTU21D;64715;44.760;37.678;2023-07-20T06:17:37;34.31;27.32
74923;HTU21D;64715;44.760;37.678;2023-07-20T06:18:37;34.09;27.55
74923;HTU21D;64715;44.760;37.678;2023-07-20T06:19:39;33.95;28.00
74923;HTU21D;64715;44.760;37.678;2023-07-20T06:20:40;33.87;28.58
74923;HTU21D;64715;44.760;37.678;2023-07-20T06:21:41;33.86;28.74
74923;HTU21D;64715;44.760;37.678;2023-07-20T06:22:43;33.80;28.91
74923;HTU21D;64715;44.760;37.678;2023-07-20T06:23:45;33.70;28.95
74923;HTU21D;64715;44.760;37.678;2023-07-20T06:24:46;33.55;29.23
74923;HTU21D;64715;44.760;37.678;2023-07-20T06:25:47;33.42;29.22
74923;HTU21D;64715;44.760;37.678;2023-07-20T06:26:50;33.30;29.44
74923;HTU21D;64715;44.760;37.678;2023-07-20T06:27:51;33.20;29.49
74923;HTU21D;64715;44.760;37.678;2023-07-20T06:28:52;33.11;29.46